Terminal Aerodrome Forecast
Issued by NWS Grand Forks, ND

Home | Current Version | Previous Version | Text Only | Print | Product List | Glossary On
Versions: 1 2 3 4 5 6 7 8 9 10 11 12 13 14 15 16 17
888
FTUS43 KFGF 221120
TAFGFK
TAF
KGFK 221120Z 2212/2312 VRB03KT 4SM BR OVC008
     FM221700 27005KT 5SM BR OVC010
     FM230100 26006KT 6SM BR OVC010
     FM231100 24006KT 6SM BR BKN020=

USA.gov is the U.S. government's official web portal to all federal, state and local government web resources and services.